Terminal Aerodrome Forecast
Issued by NWS

Current Version | Previous Version | Graphics & Text | Print | Product List | Glossary On
Versions: 1 2 3 4 5 6 7 8 9 10 11 12 13 14 15 16 17 18 19 20
000
FTUS41 KRLX 271000 AAB
TAFCKB
TAF AMD
KCKB 271003Z 2710/2806 35008G13KT 4SM -SN OVC020
     FM271100 35007KT 6SM -SN BKN025
     FM271300 34006KT P6SM SCT025
     FM271500 30006KT P6SM BKN025
     FM271900 30006KT P6SM SCT035
     FM280000 00000KT P6SM SCT040
     FM280200 00000KT P6SM BKN250=

USA.gov is the U.S. government's official web portal to all federal, state and local government web resources and services.